Terminal Aerodrome Forecast
Issued by NWS

Home | Current Version | Previous Version | Text Only | Print | Product List | Glossary On
Versions: 1 2 3 4 5 6 7 8 9 10 11 12 13 14 15 16 17 18 19 20 21 22 23 24 25 26 27 28 29 30 31 32 33 34
000
FTAK31 PANC 232333
TAFACD
TAF
PACD 232333Z 2400/2424 16005KT P6SM FEW035 BKN050
     FM240400 20006KT 6SM -SHSN BKN040
     FM240900 17012KT P6SM SCT050 BKN080
     FM241700 15015G25KT 6SM -SN BR BKN025 OVC050
     FM242100 15025G35KT 6SM -RA BR BKN020 OVC030
     FM242300 15035G55KT 5SM RA BR BKN015 OVC025=

USA.gov is the U.S. government's official web portal to all federal, state and local government web resources and services.